Time;durP1;ratioP1;P1;durP2;ratioP2;P2;SDS_P1;SDS_P2;PMS_P1;PMS_P2;Temp;Humidity;BMP_temperature;BMP_pressure;BME280_temperature;BME280_humidity;BME280_pressure;Samples;Min_cycle;Max_cycle;Signal;HPM_P1;HPM_P2
2022/03/22 00:01:56;;;;;;;;;;;;;;;21.41;37.96;102861.91;5053927;28;19996;-75
2022/03/22 00:04:21;;;;;;;;;;;;;;;21.40;38.06;102852.84;5054379;28;20020;-75
2022/03/22 00:06:46;;;;;;;;;;;;;;;21.40;38.14;102852.84;5054190;28;20309;-74
2022/03/22 00:09:12;;;;;;;;;;;;;;;21.39;38.02;102854.78;5054119;28;19920;-75
2022/03/22 00:11:37;;;;;;;;;;;;;;;21.39;37.92;102854.78;5069359;28;19943;-75
2022/03/22 00:14:02;;;;;;;;;;;;;;;21.39;38.14;102852.03;5054251;28;19947;-75
2022/03/22 00:16:28;;;;;;;;;;;;;;;21.39;38.12;102860.28;5069657;28;20396;-74
2022/03/22 00:18:53;;;;;;;;;;;;;;;21.39;37.90;102854.78;5053428;28;19946;-76
2022/03/22 00:21:19;;;;;;;;;;;;;;;21.38;38.04;102850.34;5054985;28;19954;-75
2022/03/22 00:23:45;;;;;;;;;;;;;;;21.38;38.00;102855.00;5054210;28;20400;-75
2022/03/22 00:26:11;;;;;;;;;;;;;;;21.37;37.88;102854.16;5053581;28;20008;-76
2022/03/22 00:28:36;;;;;;;;;;;;;;;21.38;38.12;102863.25;5068802;28;20333;-75
2022/03/22 00:31:02;;;;;;;;;;;;;;;21.37;37.97;102858.84;5071641;28;20373;-75
2022/03/22 00:33:28;;;;;;;;;;;;;;;21.37;37.71;102864.34;5039841;28;20016;-75
2022/03/22 00:35:53;;;;;;;;;;;;;;;21.37;37.84;102856.09;5039734;28;20003;-77
2022/03/22 00:38:20;;;;;;;;;;;;;;;21.36;37.98;102862.66;5073414;28;19952;-75
2022/03/22 00:40:46;;;;;;;;;;;;;;;21.36;38.07;102857.16;5073909;28;19987;-75
2022/03/22 00:43:11;;;;;;;;;;;;;;;21.34;37.81;102862.94;5057251;28;20369;-75
2022/03/22 00:45:37;;;;;;;;;;;;;;;21.35;38.16;102863.78;5039902;28;19963;-75
2022/03/22 00:48:04;;;;;;;;;;;;;;;21.35;37.75;102861.03;5057430;28;19943;-75
2022/03/22 00:50:33;;;;;;;;;;;;;;;21.35;37.83;102863.78;5057415;28;20368;-76
2022/03/22 00:52:59;;;;;;;;;;;;;;;21.33;37.90;102861.28;5057370;28;19954;-74
2022/03/22 00:55:27;;;;;;;;;;;;;;;21.35;38.07;102869.28;5057430;28;19921;-75
2022/03/22 00:57:53;;;;;;;;;;;;;;;21.33;38.01;102869.53;5057278;28;20379;-74
2022/03/22 01:00:18;;;;;;;;;;;;;;;21.34;38.01;102864.84;5057265;28;19917;-74
2022/03/22 01:02:45;;;;;;;;;;;;;;;21.33;37.93;102863.19;5057345;28;19956;-74
2022/03/22 01:05:13;;;;;;;;;;;;;;;21.32;37.74;102867.06;5057203;28;19947;-75
2022/03/22 01:07:40;;;;;;;;;;;;;;;21.32;37.83;102867.06;5057193;28;19964;-74
2022/03/22 01:10:06;;;;;;;;;;;;;;;21.32;37.93;102867.06;5057054;28;19921;-75
2022/03/22 01:12:38;;;;;;;;;;;;;;;21.31;37.83;102866.19;5056732;28;20349;-75
2022/03/22 01:15:05;;;;;;;;;;;;;;;21.32;37.87;102864.31;5057066;28;19962;-75
2022/03/22 01:17:31;;;;;;;;;;;;;;;21.30;37.94;102863.75;5057365;28;20054;-75
2022/03/22 01:19:57;;;;;;;;;;;;;;;21.30;37.76;102871.97;5072134;28;19969;-77
2022/03/22 01:22:22;;;;;;;;;;;;;;;21.29;38.00;102875.81;5056618;28;19990;-74
2022/03/22 01:24:48;;;;;;;;;;;;;;;21.29;37.90;102871.16;5056882;28;20100;-74
2022/03/22 01:27:13;;;;;;;;;;;;;;;21.28;37.85;102869.47;5056587;28;19934;-75
2022/03/22 01:29:38;;;;;;;;;;;;;;;21.29;37.66;102875.81;5038901;28;19975;-74
2022/03/22 01:32:05;;;;;;;;;;;;;;;21.27;38.02;102870.59;5038771;28;19953;-74
2022/03/22 01:34:30;;;;;;;;;;;;;;;21.27;37.92;102870.59;5072055;28;20484;-74
2022/03/22 01:36:56;;;;;;;;;;;;;;;21.28;37.91;102863.16;5056974;28;19941;-75
2022/03/22 01:39:21;;;;;;;;;;;;;;;21.27;37.90;102869.75;5056162;28;19920;-75
2022/03/22 01:41:46;;;;;;;;;;;;;;;21.26;37.84;102868.91;5056081;28;20020;-75
2022/03/22 01:44:12;;;;;;;;;;;;;;;21.26;37.70;102873.59;5056083;28;20284;-74
2022/03/22 01:46:37;;;;;;;;;;;;;;;21.25;37.73;102871.94;5056191;28;19931;-75
2022/03/22 01:49:03;;;;;;;;;;;;;;;21.24;37.93;102871.09;5056045;28;20352;-74
2022/03/22 01:51:32;;;;;;;;;;;;;;;21.24;37.85;102870.28;5038745;28;19921;-76
2022/03/22 01:53:57;;;;;;;;;;;;;;;21.23;37.69;102869.44;5056263;28;19916;-74
2022/03/22 01:56:22;;;;;;;;;;;;;;;21.23;37.81;102868.63;5056422;28;20038;-74
2022/03/22 01:58:48;;;;;;;;;;;;;;;21.23;37.86;102871.38;5056487;28;20263;-74
2022/03/22 02:06:44;;;;;;;;;;;;;;;21.21;37.88;102860.63;5056743;28;19977;-75
2022/03/22 02:09:10;;;;;;;;;;;;;;;21.21;37.53;102859.81;5055952;28;19921;-74
2022/03/22 02:11:35;;;;;;;;;;;;;;;21.19;37.64;102860.06;5055718;28;19970;-74
2022/03/22 02:14:00;;;;;;;;;;;;;;;21.19;37.80;102854.56;5056287;28;20031;-76
2022/03/22 02:16:26;;;;;;;;;;;;;;;21.18;37.87;102853.75;5055646;28;20303;-75
2022/03/22 02:18:52;;;;;;;;;;;;;;;21.19;37.83;102854.56;5055826;28;19969;-75
2022/03/22 02:21:18;;;;;;;;;;;;;;;21.17;37.69;102843.84;5056201;28;20333;-74
2022/03/22 02:23:47;;;;;;;;;;;;;;;21.17;37.82;102848.53;5037903;28;20042;-74
2022/03/22 02:26:12;;;;;;;;;;;;;;;21.18;37.56;102850.16;5038003;28;19916;-74
2022/03/22 02:28:37;;;;;;;;;;;;;;;21.18;37.86;102855.66;5071739;28;20322;-74
2022/03/22 02:31:03;;;;;;;;;;;;;;;21.17;37.75;102859.53;5055846;28;19928;-76
2022/03/22 02:33:28;;;;;;;;;;;;;;;21.16;37.40;102858.66;5055214;28;20350;-74
2022/03/22 02:35:53;;;;;;;;;;;;;;;21.16;37.57;102853.16;5056053;28;19939;-74
2022/03/22 02:38:19;;;;;;;;;;;;;;;21.15;37.51;102854.28;5037928;28;20043;-74
2022/03/22 02:40:45;;;;;;;;;;;;;;;21.15;37.77;102851.53;5037547;28;19951;-74
2022/03/22 02:43:11;;;;;;;;;;;;;;;21.15;37.59;102858.94;5037532;28;19942;-74
2022/03/22 02:45:36;;;;;;;;;;;;;;;21.14;37.83;102852.63;5055353;28;19917;-74
2022/03/22 02:48:01;;;;;;;;;;;;;;;21.13;37.84;102848.22;5070530;28;20011;-74
2022/03/22 02:50:28;;;;;;;;;;;;;;;21.14;37.52;102857.28;5070561;28;19917;-74
2022/03/22 02:52:53;;;;;;;;;;;;;;;21.13;37.82;102859.19;5037189;28;20451;-75
2022/03/22 02:55:21;;;;;;;;;;;;;;;21.13;37.53;102858.38;5070822;28;19973;-74
2022/03/22 02:57:46;;;;;;;;;;;;;;;21.12;37.82;102857.56;5037457;28;20275;-74
2022/03/22 03:00:12;;;;;;;;;;;;;;;21.12;37.83;102859.47;5037329;28;19916;-75
2022/03/22 03:02:41;;;;;;;;;;;;;;;21.11;37.53;102861.38;5054558;28;19938;-75
2022/03/22 03:05:08;;;;;;;;;;;;;;;21.11;37.58;102858.63;5036966;28;19921;-76
2022/03/22 03:07:33;;;;;;;;;;;;;;;21.11;37.73;102860.56;5054922;28;20471;-74
2022/03/22 03:09:58;;;;;;;;;;;;;;;21.10;37.59;102851.50;5070386;28;19929;-74
2022/03/22 03:12:23;;;;;;;;;;;;;;;21.10;37.58;102858.91;5069867;28;19949;-74
2022/03/22 03:14:49;;;;;;;;;;;;;;;21.10;37.59;102861.66;5070200;28;20369;-74
2022/03/22 03:17:14;;;;;;;;;;;;;;;21.09;37.54;102860.84;5054956;28;19953;-74
2022/03/22 03:19:41;;;;;;;;;;;;;;;21.09;37.54;102860.84;5053116;28;20020;-75
2022/03/22 03:22:06;;;;;;;;;;;;;;;21.10;37.51;102864.41;5054658;28;19951;-76
2022/03/22 03:24:31;;;;;;;;;;;;;;;21.10;37.83;102867.16;5054381;28;19963;-74
2022/03/22 03:26:57;;;;;;;;;;;;;;;21.09;37.85;102868.22;5054297;28;19990;-74
2022/03/22 03:29:22;;;;;;;;;;;;;;;21.08;37.76;102870.16;5054256;28;19927;-74
2022/03/22 03:31:48;;;;;;;;;;;;;;;21.08;37.75;102866.56;5053111;28;19924;-74
2022/03/22 03:34:14;;;;;;;;;;;;;;;21.07;37.68;102862.19;5054642;28;19935;-75
2022/03/22 03:36:39;;;;;;;;;;;;;;;21.07;37.54;102862.19;5069640;28;19929;-74
2022/03/22 03:39:04;;;;;;;;;;;;;;;21.05;37.43;102865.19;5054883;28;19943;-74
2022/03/22 03:47:03;;;;;;;;;;;;;;;21.04;37.67;102866.28;5054814;28;19938;-74
2022/03/22 03:49:29;;;;;;;;;;;;;;;21.04;37.56;102866.28;5068827;28;20295;-75
2022/03/22 03:51:54;;;;;;;;;;;;;;;21.03;37.57;102867.34;5054113;28;19921;-74
2022/03/22 03:54:20;;;;;;;;;;;;;;;21.03;37.57;102870.09;5054336;28;19952;-74
2022/03/22 03:56:46;;;;;;;;;;;;;;;21.02;37.76;102867.66;5069467;28;19932;-75
2022/03/22 03:59:11;;;;;;;;;;;;;;;21.02;37.56;102878.63;5053824;28;20066;-76
2022/03/22 04:01:36;;;;;;;;;;;;;;;21.02;37.57;102882.19;5054009;28;19933;-75
2022/03/22 04:04:03;;;;;;;;;;;;;;;21.01;37.64;102883.28;5053716;28;19937;-75
2022/03/22 04:06:29;;;;;;;;;;;;;;;21.02;37.53;102892.38;5053253;28;19928;-74
2022/03/22 04:08:54;;;;;;;;;;;;;;;21.01;37.78;102885.19;5054175;28;19921;-74
2022/03/22 04:11:20;;;;;;;;;;;;;;;21.00;37.53;102889.88;5053869;28;19934;-75
2022/03/22 04:13:46;;;;;;;;;;;;;;;21.00;37.50;102891.78;5053604;28;20023;-74
2022/03/22 04:16:11;;;;;;;;;;;;;;;20.99;37.63;102890.97;5036179;28;19935;-77
2022/03/22 04:18:36;;;;;;;;;;;;;;;20.99;37.57;102898.38;5036310;28;19920;-75
2022/03/22 04:21:02;;;;;;;;;;;;;;;20.99;37.70;102890.13;5053707;28;19925;-75
2022/03/22 04:23:27;;;;;;;;;;;;;;;20.97;37.70;102890.41;5052403;28;19920;-75
2022/03/22 04:25:53;;;;;;;;;;;;;;;20.97;37.51;102887.66;5054159;28;19920;-74
2022/03/22 04:33:46;;;;;;;;;;;;;;;20.96;37.64;102899.72;5053928;28;20295;-75
2022/03/22 04:36:12;;;;;;;;;;;;;;;20.95;37.53;102898.06;5053220;28;20368;-76
2022/03/22 04:38:37;;;;;;;;;;;;;;;20.94;37.68;102899.13;5053904;28;19938;-74
2022/03/22 04:41:03;;;;;;;;;;;;;;;20.93;37.65;102898.31;5069408;28;19921;-74
2022/03/22 04:43:28;;;;;;;;;;;;;;;20.93;37.80;102898.31;5053542;28;20078;-74
2022/03/22 04:45:53;;;;;;;;;;;;;;;20.93;37.74;102897.50;5068730;28;19993;-75
2022/03/22 04:48:19;;;;;;;;;;;;;;;20.93;37.44;102905.72;5069314;28;20033;-75
2022/03/22 04:50:44;;;;;;;;;;;;;;;20.91;37.51;102902.41;5053598;28;19928;-75
2022/03/22 04:58:37;;;;;;;;;;;;;;;20.91;37.58;102910.66;5054011;28;19997;-74
2022/03/22 05:01:03;;;;;;;;;;;;;;;20.89;37.59;102908.19;5035151;28;19917;-74
2022/03/22 05:03:29;;;;;;;;;;;;;;;20.89;37.55;102912.81;5035670;28;19917;-74
2022/03/22 05:08:38;;;;;;;;;;;;;;;20.88;37.63;102901.00;5054084;28;19963;-74
2022/03/22 05:11:03;;;;;;;;;;;;;;;20.88;37.55;102909.25;5053886;28;19931;-75
2022/03/22 05:13:29;;;;;;;;;;;;;;;20.88;37.59;102902.94;5053288;28;20002;-74
2022/03/22 05:15:54;;;;;;;;;;;;;;;20.86;37.71;102900.44;5035442;28;19921;-74
2022/03/22 05:18:23;;;;;;;;;;;;;;;20.86;37.78;102908.69;5055492;28;19925;-75
2022/03/22 05:20:48;;;;;;;;;;;;;;;20.85;37.56;102911.72;5071936;28;19962;-74
2022/03/22 05:23:15;;;;;;;;;;;;;;;20.85;37.53;102911.72;5056885;28;20303;-75
2022/03/22 05:25:40;;;;;;;;;;;;;;;20.85;37.60;102918.03;5057041;28;19949;-74
2022/03/22 05:28:05;;;;;;;;;;;;;;;20.84;37.54;102918.28;5056833;28;19921;-74
2022/03/22 05:30:31;;;;;;;;;;;;;;;20.83;37.42;102920.19;5072062;28;19931;-75
2022/03/22 05:32:56;;;;;;;;;;;;;;;20.83;37.58;102924.88;5056745;28;20044;-74
2022/03/22 05:35:23;;;;;;;;;;;;;;;20.83;37.53;102927.59;5055845;28;19997;-74
2022/03/22 05:37:48;;;;;;;;;;;;;;;20.82;37.59;102924.03;5056748;28;19990;-74
2022/03/22 05:40:16;;;;;;;;;;;;;;;20.82;37.59;102926.78;5057194;28;20368;-75
2022/03/22 05:42:41;;;;;;;;;;;;;;;20.82;37.59;102925.97;5056775;28;19945;-74
2022/03/22 05:45:08;;;;;;;;;;;;;;;20.80;37.72;102926.22;5054912;28;19920;-74
2022/03/22 05:47:34;;;;;;;;;;;;;;;20.80;37.46;102926.22;5038450;28;20419;-74
2022/03/22 05:50:00;;;;;;;;;;;;;;;20.80;37.54;102925.38;5056699;28;20334;-75
2022/03/22 05:52:25;;;;;;;;;;;;;;;20.79;37.66;102927.31;5056216;28;19947;-74
2022/03/22 05:54:50;;;;;;;;;;;;;;;20.79;37.60;102919.06;5071970;28;20330;-74
2022/03/22 05:57:16;;;;;;;;;;;;;;;20.79;37.56;102920.97;5071484;28;19974;-74
2022/03/22 05:59:41;;;;;;;;;;;;;;;20.78;37.67;102927.56;5071675;28;19924;-74
2022/03/22 06:02:06;;;;;;;;;;;;;;;20.77;37.74;102932.22;5056200;28;19939;-74
2022/03/22 06:04:32;;;;;;;;;;;;;;;20.77;37.54;102928.66;5054805;28;19927;-74
2022/03/22 06:06:58;;;;;;;;;;;;;;;20.75;37.51;102932.47;5071600;28;19943;-74
2022/03/22 06:09:23;;;;;;;;;;;;;;;20.75;37.51;102929.72;5056033;28;19921;-74
2022/03/22 06:11:49;;;;;;;;;;;;;;;20.75;37.59;102937.97;5055971;28;19971;-74
2022/03/22 06:14:14;;;;;;;;;;;;;;;20.75;37.78;102937.16;5055617;28;20361;-74
2022/03/22 06:16:39;;;;;;;;;;;;;;;20.75;37.73;102934.41;5056446;28;19926;-74
2022/03/22 06:19:05;;;;;;;;;;;;;;;20.74;37.61;102938.25;5071341;28;19935;-75
2022/03/22 06:21:30;;;;;;;;;;;;;;;20.74;37.74;102946.47;5055849;28;19925;-74
2022/03/22 06:23:55;;;;;;;;;;;;;;;20.73;37.64;102944.81;5071769;28;19931;-74
2022/03/22 06:26:21;;;;;;;;;;;;;;;20.73;37.56;102942.06;5055754;28;19953;-76
2022/03/22 06:28:46;;;;;;;;;;;;;;;20.73;37.62;102945.63;5055576;28;19921;-74
2022/03/22 06:31:12;;;;;;;;;;;;;;;20.72;37.63;102948.66;5037717;28;19931;-74
2022/03/22 06:33:37;;;;;;;;;;;;;;;20.72;37.62;102951.41;5055503;28;20298;-74
2022/03/22 06:36:04;;;;;;;;;;;;;;;20.71;37.57;102956.06;5055581;28;19971;-74
2022/03/22 06:38:32;;;;;;;;;;;;;;;20.70;37.51;102957.13;5037546;28;20322;-74
2022/03/22 06:40:58;;;;;;;;;;;;;;;20.70;37.74;102968.13;5055458;28;19970;-74
2022/03/22 06:43:23;;;;;;;;;;;;;;;20.70;37.65;102959.88;5055884;28;20360;-76
2022/03/22 06:45:48;;;;;;;;;;;;;;;20.70;37.63;102970.03;5070786;28;19920;-74
2022/03/22 06:48:15;;;;;;;;;;;;;;;20.69;37.57;102960.97;5055219;28;19923;-74
2022/03/22 06:50:42;;;;;;;;;;;;;;;20.68;37.58;102967.53;5055159;28;19939;-74
2022/03/22 06:53:07;;;;;;;;;;;;;;;20.68;37.60;102970.28;5055264;28;19947;-74
2022/03/22 06:55:34;;;;;;;;;;;;;;;20.68;37.88;102978.53;5037170;28;20106;-74
2022/03/22 06:58:00;;;;;;;;;;;;;;;20.68;37.69;102974.97;5036911;28;19954;-74
2022/03/22 07:00:27;;;;;;;;;;;;;;;20.67;37.67;102976.88;5055022;28;19928;-74
2022/03/22 07:02:53;;;;;;;;;;;;;;;20.67;37.50;102979.63;5055452;28;19921;-75
2022/03/22 07:05:18;;;;;;;;;;;;;;;20.66;37.55;102980.72;5055292;28;20278;-74
2022/03/22 07:07:43;;;;;;;;;;;;;;;20.67;37.75;102976.06;5070478;28;19921;-74
2022/03/22 07:10:10;;;;;;;;;;;;;;;20.67;37.74;102976.06;5055772;28;19930;-75
2022/03/22 07:12:46;;;;;;;;;;;;;;;20.66;37.86;102975.22;5036621;28;20020;-75
2022/03/22 07:15:11;;;;;;;;;;;;;;;20.66;37.73;102971.63;5055392;28;19920;-75
2022/03/22 07:17:37;;;;;;;;;;;;;;;20.67;37.55;102973.31;5055203;28;19966;-75
2022/03/22 07:20:02;;;;;;;;;;;;;;;20.66;37.78;102979.88;5054796;28;19929;-76
2022/03/22 07:22:28;;;;;;;;;;;;;;;20.66;37.65;102974.38;5070034;28;19921;-76
2022/03/22 07:24:53;;;;;;;;;;;;;;;20.66;37.63;102982.63;5056154;28;19928;-76
2022/03/22 07:27:18;;;;;;;;;;;;;;;20.66;37.81;102983.47;5057734;28;19921;-80
2022/03/22 07:29:43;;;;;;;;;;;;;;;20.66;37.76;102980.72;5071989;28;20078;-81
2022/03/22 07:32:09;;;;;;;;;;;;;;;20.66;37.78;102983.47;5053300;28;19947;-76
2022/03/22 07:34:34;;;;;;;;;;;;;;;20.67;37.94;102992.53;5054071;28;19924;-76
2022/03/22 07:36:59;;;;;;;;;;;;;;;20.67;37.86;102990.59;5069944;28;20473;-76
2022/03/22 07:39:27;;;;;;;;;;;;;;;20.67;37.99;102993.34;5054605;28;19921;-77
2022/03/22 07:41:53;;;;;;;;;;;;;;;20.68;37.96;102994.19;5069534;28;20395;-76
2022/03/22 07:44:19;;;;;;;;;;;;;;;20.67;37.82;102993.34;5069549;28;20465;-75
2022/03/22 07:46:45;;;;;;;;;;;;;;;20.67;38.19;102990.59;5054132;28;20030;-74
2022/03/22 07:54:41;;;;;;;;;;;;;;;20.69;37.93;102990.38;5054498;28;19971;-76
2022/03/22 07:57:09;;;;;;;;;;;;;;;20.68;38.25;102992.25;5053918;28;19917;-76
2022/03/22 07:59:35;;;;;;;;;;;;;;;20.68;38.07;102991.44;5054073;28;20411;-76
2022/03/22 08:02:00;;;;;;;;;;;;;;;20.69;38.08;102990.38;5054383;28;19927;-76
2022/03/22 08:04:26;;;;;;;;;;;;;;;20.68;38.06;102997.75;5054090;28;19943;-76
2022/03/22 08:06:51;;;;;;;;;;;;;;;20.69;38.12;103002.19;5036301;28;19971;-76
2022/03/22 08:09:16;;;;;;;;;;;;;;;20.69;37.97;102999.44;5053740;28;19943;-76
2022/03/22 08:11:42;;;;;;;;;;;;;;;20.69;38.03;102996.69;5035537;28;20034;-76
2022/03/22 08:14:08;;;;;;;;;;;;;;;20.69;38.09;102996.69;5069085;28;20015;-76
2022/03/22 08:16:33;;;;;;;;;;;;;;;20.69;38.04;102996.69;5069400;28;20381;-77
2022/03/22 08:18:58;;;;;;;;;;;;;;;20.69;38.25;102996.69;5068991;28;20348;-76
2022/03/22 08:21:24;;;;;;;;;;;;;;;20.70;38.00;102995.59;5053250;28;19932;-76
2022/03/22 08:23:49;;;;;;;;;;;;;;;20.70;38.22;103003.00;5036462;28;19924;-76
2022/03/22 08:26:14;;;;;;;;;;;;;;;20.70;38.30;103000.25;5053453;28;19986;-76
2022/03/22 08:28:40;;;;;;;;;;;;;;;20.69;38.17;102999.44;5053496;28;19930;-77
2022/03/22 08:31:06;;;;;;;;;;;;;;;20.69;38.22;103004.91;5053305;28;20020;-77
2022/03/22 08:33:31;;;;;;;;;;;;;;;20.68;38.23;103006.00;5053814;28;19960;-77
2022/03/22 08:35:57;;;;;;;;;;;;;;;20.69;37.95;102996.69;5053439;28;19921;-77
2022/03/22 08:38:24;;;;;;;;;;;;;;;20.69;38.11;102999.44;5054177;28;19976;-77
2022/03/22 08:40:50;;;;;;;;;;;;;;;20.70;38.10;103005.75;5053362;28;19933;-76
2022/03/22 08:43:15;;;;;;;;;;;;;;;20.69;38.05;103004.91;5053613;28;19921;-76
2022/03/22 08:45:41;;;;;;;;;;;;;;;20.68;38.04;103006.00;5036002;28;20387;-77
2022/03/22 08:48:10;;;;;;;;;;;;;;;20.67;38.17;102998.84;5069274;28;19916;-76
2022/03/22 08:50:36;;;;;;;;;;;;;;;20.69;38.06;103010.41;5053335;28;19927;-77
2022/03/22 08:53:02;;;;;;;;;;;;;;;20.68;38.05;103002.41;5057179;28;19921;-76
2022/03/22 08:55:29;;;;;;;;;;;;;;;20.69;38.30;102998.59;5039329;28;19939;-76
2022/03/22 08:57:54;;;;;;;;;;;;;;;20.69;38.25;103002.19;5056814;28;19934;-76
2022/03/22 09:00:21;;;;;;;;;;;;;;;20.68;38.32;102997.75;5057295;28;19942;-76
2022/03/22 09:02:47;;;;;;;;;;;;;;;20.69;38.04;102990.38;5057517;28;20311;-76
2022/03/22 09:07:58;;;;;;;;;;;;;;;20.69;38.05;102995.84;5057031;28;19920;-76
2022/03/22 09:10:23;;;;;;;;;;;;;;;20.69;38.30;102999.44;5057617;28;20037;-76
2022/03/22 09:12:49;;;;;;;;;;;;;;;20.68;38.29;102992.25;5056959;28;20004;-75
2022/03/22 09:15:26;;;;;;;;;;;;;;;20.69;38.16;102993.94;5039207;28;19951;-76
2022/03/22 09:17:52;;;;;;;;;;;;;;;20.68;38.24;102985.94;5056785;28;19920;-77
2022/03/22 09:20:18;;;;;;;;;;;;;;;20.69;38.29;102984.88;5056751;28;19997;-76
2022/03/22 09:22:44;;;;;;;;;;;;;;;20.69;38.08;102991.19;5057171;28;19916;-77
2022/03/22 09:25:10;;;;;;;;;;;;;;;20.69;38.15;102988.44;5039281;28;19931;-76
2022/03/22 09:27:36;;;;;;;;;;;;;;;20.69;38.16;102982.94;5072512;28;19939;-77
2022/03/22 09:30:02;;;;;;;;;;;;;;;20.70;38.36;102981.03;5057106;28;19943;-75
2022/03/22 09:32:28;;;;;;;;;;;;;;;20.69;38.11;102980.22;5056656;28;19917;-75
2022/03/22 09:34:53;;;;;;;;;;;;;;;20.69;38.34;102988.44;5056508;28;19991;-76
2022/03/22 09:37:18;;;;;;;;;;;;;;;20.69;38.16;102988.44;5055211;28;19957;-75
2022/03/22 09:39:45;;;;;;;;;;;;;;;20.69;38.25;102982.13;5056636;28;19929;-75
2022/03/22 09:42:11;;;;;;;;;;;;;;;20.67;38.23;102985.13;5055494;28;20395;-75
2022/03/22 09:44:36;;;;;;;;;;;;;;;20.68;38.23;102984.03;5056599;28;20371;-75
2022/03/22 09:47:03;;;;;;;;;;;;;;;20.69;38.26;102979.38;5071538;28;19946;-75
2022/03/22 09:49:28;;;;;;;;;;;;;;;20.70;38.29;102986.53;5056716;28;19945;-75
2022/03/22 09:51:54;;;;;;;;;;;;;;;20.69;38.54;102988.44;5056317;28;20307;-75
2022/03/22 09:54:22;;;;;;;;;;;;;;;20.69;38.24;102984.88;5056506;28;19950;-78
2022/03/22 09:56:48;;;;;;;;;;;;;;;20.70;38.17;102989.28;5056180;28;19929;-76
2022/03/22 09:59:17;;;;;;;;;;;;;;;20.70;38.38;102987.34;5037961;28;20298;-75
2022/03/22 10:01:43;;;;;;;;;;;;;;;20.70;38.32;102984.59;5056353;28;19924;-77
2022/03/22 10:04:12;;;;;;;;;;;;;;;20.70;38.37;102984.59;5071733;28;19938;-75
2022/03/22 10:06:38;;;;;;;;;;;;;;;20.70;38.42;102981.84;5038113;28;19935;-75
2022/03/22 10:09:07;;;;;;;;;;;;;;;20.70;38.41;102983.78;5038141;28;19968;-76
2022/03/22 10:11:35;;;;;;;;;;;;;;;20.70;38.42;102981.84;5071229;28;19983;-75
2022/03/22 10:14:01;;;;;;;;;;;;;;;20.71;38.72;102979.94;5055566;28;19969;-76
2022/03/22 10:16:27;;;;;;;;;;;;;;;20.72;38.55;102979.69;5071849;28;19943;-75
2022/03/22 10:18:52;;;;;;;;;;;;;;;20.72;38.61;102979.69;5055878;28;19992;-76
2022/03/22 10:21:17;;;;;;;;;;;;;;;20.74;38.63;102982.19;5038033;28;20376;-76
2022/03/22 10:23:50;;;;;;;;;;;;;;;20.72;38.69;102965.94;5070993;28;20010;-79
2022/03/22 10:26:15;;;;;;;;;;;;;;;20.72;38.60;102965.94;5055352;28;20230;-76
2022/03/22 10:28:50;;;;;;;;;;;;;;;20.72;38.62;102968.69;5055361;28;20421;-77
2022/03/22 10:31:16;;;;;;;;;;;;;;;20.72;38.50;102963.22;5038001;28;19923;-77
2022/03/22 10:33:48;;;;;;;;;;;;;;;20.72;38.72;102965.94;5056010;28;19977;-77
2022/03/22 10:36:15;;;;;;;;;;;;;;;20.73;38.92;102970.34;5054214;28;20010;-76
2022/03/22 10:38:40;;;;;;;;;;;;;;;20.73;38.71;102962.09;5055853;28;19947;-77
2022/03/22 10:41:07;;;;;;;;;;;;;;;20.74;38.67;102957.47;5070873;28;19949;-76
2022/03/22 10:43:36;;;;;;;;;;;;;;;20.75;38.93;102956.38;5053690;28;19994;-75
2022/03/22 10:46:01;;;;;;;;;;;;;;;20.77;38.78;102961.63;5037436;28;20034;-76
2022/03/22 10:48:32;;;;;;;;;;;;;;;20.77;38.67;102959.69;5037561;28;20024;-75
2022/03/22 10:50:59;;;;;;;;;;;;;;;20.79;38.98;102962.16;5037658;28;20273;-74
2022/03/22 10:53:25;;;;;;;;;;;;;;;20.79;38.73;102963.03;5055154;28;19954;-75
2022/03/22 10:55:51;;;;;;;;;;;;;;;20.80;39.01;102961.09;5055204;28;19923;-75
2022/03/22 10:58:20;;;;;;;;;;;;;;;20.81;39.01;102960.00;5055272;28;20281;-75
2022/03/22 11:00:46;;;;;;;;;;;;;;;20.82;38.82;102958.94;5055374;28;20000;-75
2022/03/22 11:03:12;;;;;;;;;;;;;;;20.82;38.92;102951.50;5054868;28;20337;-75
2022/03/22 11:05:39;;;;;;;;;;;;;;;20.84;38.82;102956.72;5055021;28;20393;-75
2022/03/22 11:08:05;;;;;;;;;;;;;;;20.85;38.91;102950.16;5054597;28;20260;-74
2022/03/22 11:10:30;;;;;;;;;;;;;;;20.85;38.81;102956.47;5054532;28;19988;-75
2022/03/22 11:12:59;;;;;;;;;;;;;;;20.86;38.73;102944.38;5070145;28;20002;-74
2022/03/22 11:15:29;;;;;;;;;;;;;;;20.88;38.86;102960.63;5054531;28;19923;-74
2022/03/22 11:17:56;;;;;;;;;;;;;;;20.88;38.78;102946.88;5054958;28;19917;-75
2022/03/22 11:20:22;;;;;;;;;;;;;;;20.89;38.68;102956.78;5055205;28;20060;-74
2022/03/22 11:22:49;;;;;;;;;;;;;;;20.89;38.77;102946.66;5054346;28;20348;-75
2022/03/22 11:25:18;;;;;;;;;;;;;;;20.89;38.85;102943.91;5054623;28;19916;-75
2022/03/22 11:27:54;;;;;;;;;;;;;;;20.90;38.91;102947.47;5054867;28;19928;-77
2022/03/22 11:30:19;;;;;;;;;;;;;;;20.91;38.92;102940.88;5055104;28;20373;-75
2022/03/22 11:35:28;;;;;;;;;;;;;;;20.91;38.90;102940.88;5067883;28;19958;-75
2022/03/22 11:37:55;;;;;;;;;;;;;;;20.93;38.70;102944.19;5054298;28;19934;-75
2022/03/22 11:43:09;;;;;;;;;;;;;;;20.94;38.63;102943.09;5067421;28;19982;-74
2022/03/22 11:45:44;;;;;;;;;;;;;;;20.94;38.85;102938.47;5054728;28;19917;-74
2022/03/22 11:48:10;;;;;;;;;;;;;;;20.95;38.68;102940.09;5037121;28;19997;-74
2022/03/22 11:50:35;;;;;;;;;;;;;;;20.96;38.74;102936.28;5054759;28;19921;-75
2022/03/22 11:53:01;;;;;;;;;;;;;;;20.95;38.90;102934.59;5054242;28;19938;-75
2022/03/22 11:55:26;;;;;;;;;;;;;;;20.97;38.83;102937.09;5069447;28;19924;-75
2022/03/22 11:57:53;;;;;;;;;;;;;;;20.99;38.91;102931.34;5053732;28;19962;-75
2022/03/22 12:00:22;;;;;;;;;;;;;;;20.98;38.70;102938.75;5054065;28;20008;-74
2022/03/22 12:02:54;;;;;;;;;;;;;;;21.00;38.71;102933.84;5053745;28;19921;-75
2022/03/22 12:05:21;;;;;;;;;;;;;;;21.01;38.56;102931.91;5053879;28;19920;-75
2022/03/22 12:07:47;;;;;;;;;;;;;;;21.00;38.85;102925.59;5053845;28;19916;-75
2022/03/22 12:10:14;;;;;;;;;;;;;;;21.01;38.81;102924.50;5036154;28;20469;-74
2022/03/22 12:12:40;;;;;;;;;;;;;;;21.02;38.53;102925.34;5053565;28;20391;-74
2022/03/22 12:15:10;;;;;;;;;;;;;;;21.03;38.64;102927.81;5053810;28;19917;-75
2022/03/22 12:17:36;;;;;;;;;;;;;;;21.02;38.63;102923.41;5054445;28;20063;-75
2022/03/22 12:20:11;;;;;;;;;;;;;;;21.03;38.79;102911.31;5053830;28;20332;-74
2022/03/22 12:22:41;;;;;;;;;;;;;;;21.03;38.80;102905.81;5054019;28;19916;-75
2022/03/22 12:25:08;;;;;;;;;;;;;;;21.05;38.66;102902.84;5053717;28;19993;-75
2022/03/22 12:27:33;;;;;;;;;;;;;;;21.05;38.75;102909.16;5053630;28;19924;-76
2022/03/22 12:29:58;;;;;;;;;;;;;;;21.05;38.60;102909.16;5053680;28;19941;-75
2022/03/22 12:32:27;;;;;;;;;;;;;;;21.05;38.65;102908.31;5035781;28;19921;-75
2022/03/22 12:34:52;;;;;;;;;;;;;;;21.07;38.75;102895.16;5068840;28;20037;-75
2022/03/22 12:37:18;;;;;;;;;;;;;;;21.07;38.59;102895.16;5053549;28;19968;-74
2022/03/22 12:39:44;;;;;;;;;;;;;;;21.07;38.72;102889.66;5053550;28;19940;-75
2022/03/22 12:42:10;;;;;;;;;;;;;;;21.07;38.81;102893.25;5035625;28;20393;-75
2022/03/22 12:44:36;;;;;;;;;;;;;;;21.08;38.68;102889.38;5053614;28;19916;-74
2022/03/22 12:47:05;;;;;;;;;;;;;;;21.09;38.68;102888.31;5036392;28;20263;-74
2022/03/22 12:49:35;;;;;;;;;;;;;;;21.09;38.61;102879.22;5053619;28;19916;-75
2022/03/22 12:52:01;;;;;;;;;;;;;;;21.10;38.49;102876.22;5053303;28;20035;-75
2022/03/22 12:54:33;;;;;;;;;;;;;;;21.10;38.56;102878.16;5053628;28;19971;-75
2022/03/22 12:57:00;;;;;;;;;;;;;;;21.10;38.68;102884.47;5035906;28;19917;-75
2022/03/22 12:59:26;;;;;;;;;;;;;;;21.11;38.67;102871.53;5054539;28;19920;-75
2022/03/22 13:01:58;;;;;;;;;;;;;;;21.12;38.58;102873.22;5069661;28;19953;-77
2022/03/22 13:04:25;;;;;;;;;;;;;;;21.11;38.44;102871.53;5053624;28;19964;-74
2022/03/22 13:06:59;;;;;;;;;;;;;;;21.11;38.69;102869.63;5053825;28;20004;-75
2022/03/22 13:12:12;;;;;;;;;;;;;;;21.13;38.75;102869.38;5053924;28;20003;-74